Time;durP1;ratioP1;P1;durP2;ratioP2;P2;SDS_P1;SDS_P2;PMS_P1;PMS_P2;Temp;Humidity;BMP_temperature;BMP_pressure;BME280_temperature;BME280_humidity;BME280_pressure;Samples;Min_cycle;Max_cycle;Signal;HPM_P1;HPM_P2
2022/01/04 00:01:53;;;;;;;2.78;1.20;;;;;;;13.03;97.02;99138.28;5012249;28;20034;-63
2022/01/04 00:04:18;;;;;;;2.22;1.10;;;;;;;13.01;96.62;99137.50;5012255;28;20018;-63
2022/01/04 00:06:46;;;;;;;1.77;1.17;;;;;;;13.01;97.04;99129.50;5012212;28;20100;-63
2022/01/04 00:09:13;;;;;;;1.70;1.20;;;;;;;12.96;97.38;99131.53;5012327;28;20026;-63
2022/01/04 00:14:30;;;;;;;6.43;1.52;;;;;;;13.00;97.62;99111.72;4995821;28;20121;-64
2022/01/04 00:16:55;;;;;;;3.05;1.33;;;;;;;12.91;98.17;99092.72;5010909;28;20335;-64
2022/01/04 00:19:22;;;;;;;1.67;1.13;;;;;;;12.97;98.72;99095.91;5009707;28;20023;-64
2022/01/04 00:21:47;;;;;;;3.25;1.02;;;;;;;12.90;98.79;99088.31;4992653;28;20046;-64
2022/01/04 00:24:13;;;;;;;4.35;1.52;;;;;;;12.95;99.98;99094.25;4992663;28;20069;-64
2022/01/04 00:26:39;;;;;;;3.00;1.27;;;;;;;12.88;100.00;99090.22;4993016;28;20038;-64
2022/01/04 00:29:04;;;;;;;4.63;1.50;;;;;;;12.78;100.00;99084.53;4992452;28;20024;-64
2022/01/04 00:31:30;;;;;;;5.40;1.48;;;;;;;12.73;100.00;99075.06;4993108;28;20041;-64
2022/01/04 00:33:56;;;;;;;3.78;1.15;;;;;;;12.72;100.00;99079.53;4991384;28;20038;-64
2022/01/04 00:36:21;;;;;;;2.35;1.33;;;;;;;12.70;100.00;99073.41;4992895;28;20530;-64
2022/01/04 00:38:46;;;;;;;3.13;1.00;;;;;;;12.71;100.00;99055.63;4991886;28;20479;-64
2022/01/04 00:41:43;;;;;;;2.83;1.40;;;;;;;12.72;100.00;99058.19;4992472;28;20413;-64
2022/01/04 00:44:08;;;;;;;7.13;1.20;;;;;;;12.67;100.00;99046.91;4996567;28;20443;-64
2022/01/04 00:46:34;;;;;;;2.40;1.00;;;;;;;12.65;100.00;99042.63;4993105;28;20046;-64
2022/01/04 00:49:11;;;;;;;4.47;1.30;;;;;;;12.59;100.00;99029.63;4990930;28;20037;-64
2022/01/04 00:51:36;;;;;;;3.92;1.30;;;;;;;12.57;100.00;99021.69;4993053;28;20522;-64
2022/01/04 00:54:03;;;;;;;3.65;1.20;;;;;;;12.56;100.00;99017.31;4991161;28;20034;-64
2022/01/04 00:56:28;;;;;;;14.93;2.13;;;;;;;12.61;100.00;99007.25;4991906;28;20041;-64
2022/01/04 00:58:54;;;;;;;2.47;1.25;;;;;;;12.61;100.00;99001.06;4992174;28;20030;-64
2022/01/04 01:01:20;;;;;;;4.00;1.17;;;;;;;12.60;100.00;99005.50;4992306;28;20032;-64
2022/01/04 01:03:45;;;;;;;4.13;1.52;;;;;;;12.60;100.00;99005.50;4992248;28;20030;-64
2022/01/04 01:06:11;;;;;;;3.60;1.30;;;;;;;12.66;100.00;98990.97;4990322;28;20162;-64
2022/01/04 01:08:36;;;;;;;5.85;1.80;;;;;;;12.65;100.00;98987.44;4992128;28;20027;-64
2022/01/04 01:11:04;;;;;;;4.38;1.38;;;;;;;12.67;100.00;98982.88;4991764;28;20032;-64
2022/01/04 01:13:30;;;;;;;1.25;0.98;;;;;;;12.59;100.00;98968.25;4991308;28;20033;-64
2022/01/04 01:15:55;;;;;;;4.68;3.15;;;;;;;12.61;100.00;98961.03;4992015;28;20030;-64
2022/01/04 01:18:20;;;;;;;4.95;1.40;;;;;;;12.58;100.00;98958.56;4991162;28;20038;-64
2022/01/04 01:20:48;;;;;;;7.32;1.88;;;;;;;12.56;100.00;98945.31;4991955;28;20447;-64
2022/01/04 01:23:13;;;;;;;2.95;1.35;;;;;;;12.55;100.00;98948.91;4991456;28;20510;-64
2022/01/04 01:25:39;;;;;;;5.35;1.50;;;;;;;12.74;100.00;98941.56;4990149;28;20057;-64
2022/01/04 01:28:04;;;;;;;4.63;1.20;;;;;;;12.53;100.00;98921.47;4997952;28;20101;-64
2022/01/04 01:30:33;;;;;;;5.75;1.15;;;;;;;12.83;100.00;98927.66;5010729;28;20025;-64
2022/01/04 01:32:58;;;;;;;4.15;1.73;;;;;;;12.89;100.00;98921.13;5011164;28;20029;-64
2022/01/04 01:35:24;;;;;;;4.85;2.25;;;;;;;12.70;100.00;98916.00;5011161;28;20029;-64
2022/01/04 01:37:49;;;;;;;3.13;1.52;;;;;;;12.49;100.00;98903.06;5010589;28;20474;-64
2022/01/04 01:40:15;;;;;;;1.95;1.20;;;;;;;12.43;100.00;98901.63;5011240;28;20117;-64
2022/01/04 01:42:40;;;;;;;3.40;1.52;;;;;;;12.44;100.00;98903.31;5010794;28;20500;-65
2022/01/04 01:45:08;;;;;;;2.03;1.30;;;;;;;12.46;100.00;98889.91;5011056;28;20036;-64
2022/01/04 01:47:33;;;;;;;2.72;1.10;;;;;;;12.50;100.00;98881.66;5009930;28;20018;-64
2022/01/04 01:49:59;;;;;;;2.72;1.45;;;;;;;12.47;100.00;98876.47;5010089;28;20083;-64
2022/01/04 01:52:24;;;;;;;3.10;1.67;;;;;;;12.48;100.00;98872.00;5011084;28;20406;-64
2022/01/04 01:54:50;;;;;;;4.35;1.45;;;;;;;12.50;100.00;98849.66;5010261;28;20117;-64
2022/01/04 01:57:15;;;;;;;5.75;1.92;;;;;;;12.47;100.00;98848.97;5010913;28;20034;-64
2022/01/04 01:59:40;;;;;;;4.90;1.17;;;;;;;12.49;100.00;98839.91;5010783;28;20018;-64
2022/01/04 02:02:06;;;;;;;2.38;1.10;;;;;;;12.50;100.00;98828.31;5011004;28;20026;-64
2022/01/04 02:04:31;;;;;;;2.83;1.40;;;;;;;12.52;100.00;98831.72;5010002;28;20025;-64
2022/01/04 02:06:57;;;;;;;3.72;1.30;;;;;;;12.58;100.00;98836.72;5008439;28;20045;-64
2022/01/04 02:09:23;;;;;;;2.38;1.40;;;;;;;12.64;100.00;98824.78;5009856;28;20037;-64
2022/01/04 02:11:50;;;;;;;3.30;1.25;;;;;;;12.65;100.00;98813.19;5010440;28;20486;-64
2022/01/04 02:14:16;;;;;;;4.18;1.42;;;;;;;12.75;100.00;98806.34;5010369;28;20029;-64
2022/01/04 02:16:42;;;;;;;1.92;1.08;;;;;;;12.78;100.00;98804.34;5010258;28;20030;-64
2022/01/04 02:19:08;;;;;;;4.68;1.55;;;;;;;12.79;100.00;98792.72;5008431;28;20393;-64
2022/01/04 02:21:35;;;;;;;5.68;1.40;;;;;;;12.80;100.00;98802.44;4994376;28;20033;-64
2022/01/04 02:24:01;;;;;;;6.63;1.67;;;;;;;12.79;100.00;98775.84;4990331;28;20027;-64
2022/01/04 02:26:29;;;;;;;5.10;1.70;;;;;;;12.80;100.00;98782.94;4990330;28;20541;-64
2022/01/04 02:28:54;;;;;;;2.85;1.30;;;;;;;12.79;100.00;98790.06;4990444;28;20037;-64
2022/01/04 02:31:21;;;;;;;2.08;1.15;;;;;;;12.77;100.00;98789.28;4990456;28;20453;-64
2022/01/04 02:33:46;;;;;;;1.23;1.10;;;;;;;12.76;100.00;98795.59;4990468;28;20041;-64
2022/01/04 02:36:12;;;;;;;4.53;1.60;;;;;;;12.72;100.00;98788.72;4989649;28;20026;-64
2022/01/04 02:38:37;;;;;;;1.80;1.17;;;;;;;12.71;100.00;98791.47;4989589;28;20029;-64
2022/01/04 02:41:03;;;;;;;4.15;1.40;;;;;;;12.67;100.00;98788.13;4990538;28;20022;-64
2022/01/04 02:43:29;;;;;;;3.97;1.20;;;;;;;12.62;100.00;98784.88;4992794;28;20022;-64
2022/01/04 02:45:54;;;;;;;3.70;1.52;;;;;;;12.61;100.00;98783.19;4989996;28;20041;-64
2022/01/04 02:48:20;;;;;;;3.33;1.30;;;;;;;12.63;100.00;98783.94;4990000;28;20105;-64
2022/01/04 02:50:47;;;;;;;4.15;1.65;;;;;;;12.66;100.00;98775.75;4989579;28;20554;-64
2022/01/04 02:53:12;;;;;;;4.18;1.38;;;;;;;12.61;100.00;98772.50;4992820;28;20031;-64
2022/01/04 02:55:37;;;;;;;1.75;1.10;;;;;;;12.59;100.00;98747.72;4989261;28;20041;-64
2022/01/04 02:58:03;;;;;;;3.30;2.08;;;;;;;12.57;100.00;98740.78;4989464;28;20018;-64
2022/01/04 03:00:28;;;;;;;1.55;1.10;;;;;;;12.58;100.00;98737.16;4989983;28;20030;-64
2022/01/04 03:02:55;;;;;;;2.10;1.13;;;;;;;12.60;100.00;98738.75;4986905;28;20033;-64
2022/01/04 03:05:20;;;;;;;1.83;1.20;;;;;;;12.56;100.00;98726.56;4989543;28;20032;-64
2022/01/04 03:07:46;;;;;;;2.35;1.20;;;;;;;12.38;100.00;98685.03;4989672;28;20113;-64
2022/01/04 03:10:11;;;;;;;3.50;1.33;;;;;;;12.52;100.00;98713.53;4990120;28;20470;-64
2022/01/04 03:12:42;;;;;;;2.97;1.10;;;;;;;12.46;100.00;98719.22;4989839;28;20045;-64
2022/01/04 03:15:08;;;;;;;2.50;1.95;;;;;;;12.51;100.00;98711.78;4989413;28;20041;-64
2022/01/04 03:17:33;;;;;;;4.60;1.40;;;;;;;12.51;100.00;98699.31;4993531;28;20066;-64
2022/01/04 03:19:59;;;;;;;2.85;1.40;;;;;;;12.51;100.00;98702.00;5009151;28;20026;-64
2022/01/04 03:22:24;;;;;;;3.20;1.50;;;;;;;12.47;100.00;98688.94;5008830;28;20021;-64
2022/01/04 03:24:50;;;;;;;2.65;1.50;;;;;;;12.47;100.00;98686.28;5009396;28;20049;-64
2022/01/04 03:27:15;;;;;;;2.38;1.35;;;;;;;12.40;100.00;98680.47;5008816;28;20107;-64
2022/01/04 03:29:40;;;;;;;2.13;1.20;;;;;;;12.66;100.00;98685.06;5008543;28;20026;-64
2022/01/04 03:32:06;;;;;;;2.90;1.50;;;;;;;12.78;100.00;98673.59;5004496;28;20081;-64
2022/01/04 03:34:32;;;;;;;3.05;1.65;;;;;;;12.80;100.00;98669.03;4989373;28;20032;-64
2022/01/04 03:36:57;;;;;;;4.07;1.90;;;;;;;12.80;100.00;98678.84;4989244;28;20510;-64
2022/01/04 03:39:23;;;;;;;4.75;1.80;;;;;;;12.53;100.00;98661.88;4988593;28;20038;-64
2022/01/04 03:41:50;;;;;;;2.15;1.27;;;;;;;12.40;100.00;98659.13;4989651;28;20104;-64
2022/01/04 03:44:19;;;;;;;2.75;1.30;;;;;;;12.39;100.00;98660.06;4989484;28;20037;-64
2022/01/04 03:46:51;;;;;;;3.90;1.52;;;;;;;12.43;100.00;98656.28;5006458;28;20040;-64
2022/01/04 03:49:17;;;;;;;3.47;1.40;;;;;;;12.37;100.00;98651.28;5007471;28;20037;-64
2022/01/04 03:51:43;;;;;;;3.55;1.38;;;;;;;12.67;100.00;98646.72;5008201;28;20393;-64
2022/01/04 03:54:09;;;;;;;8.43;1.63;;;;;;;12.75;100.00;98641.78;5008939;28;20034;-64
2022/01/04 03:56:35;;;;;;;1.83;1.00;;;;;;;12.75;100.00;98635.59;5008478;28;20050;-64
2022/01/04 03:59:00;;;;;;;2.53;1.40;;;;;;;12.78;100.00;98630.06;5006671;28;20529;-64
2022/01/04 04:01:26;;;;;;;3.70;1.35;;;;;;;12.81;100.00;98617.38;5007963;28;20294;-64
2022/01/04 04:03:52;;;;;;;4.15;1.92;;;;;;;12.76;100.00;98622.16;5009015;28;20038;-64
2022/01/04 04:06:17;;;;;;;5.43;1.60;;;;;;;12.79;100.00;98621.09;5008445;28;20105;-64
2022/01/04 04:08:43;;;;;;;1.25;0.98;;;;;;;12.80;100.00;98618.31;5007744;28;20030;-64
2022/01/04 04:11:08;;;;;;;3.25;1.40;;;;;;;12.84;100.00;98608.31;5008625;28;20091;-64
2022/01/04 04:13:34;;;;;;;3.97;1.33;;;;;;;12.63;100.00;98602.56;5008596;28;20034;-64
2022/01/04 04:15:59;;;;;;;2.00;1.20;;;;;;;12.86;100.00;98601.94;5008788;28;20045;-64
2022/01/04 04:18:26;;;;;;;3.97;1.27;;;;;;;12.50;100.00;98601.59;5001462;28;20050;-64
2022/01/04 04:20:51;;;;;;;3.60;1.40;;;;;;;12.40;100.00;98597.81;4991084;28;20060;-64
2022/01/04 04:23:17;;;;;;;2.53;1.60;;;;;;;12.41;100.00;98599.50;5008589;28;20096;-64
2022/01/04 04:25:42;;;;;;;7.00;2.17;;;;;;;12.39;100.00;98581.91;5008538;28;20028;-64
2022/01/04 04:28:08;;;;;;;2.78;1.30;;;;;;;12.37;100.00;98571.31;5007179;28;20022;-64
2022/01/04 04:30:34;;;;;;;3.35;1.20;;;;;;;12.38;100.00;98583.69;5008314;28;20128;-64
2022/01/04 04:32:59;;;;;;;6.78;1.95;;;;;;;12.38;100.00;98566.84;5008546;28;20389;-64
2022/01/04 04:35:25;;;;;;;2.95;1.20;;;;;;;12.36;100.00;98569.59;5008453;28;20033;-65
2022/01/04 04:37:51;;;;;;;3.40;1.10;;;;;;;12.36;100.00;98558.94;5008278;28;20045;-65
2022/01/04 04:40:16;;;;;;;4.72;1.48;;;;;;;12.40;100.00;98555.13;5008679;28;20497;-65
2022/01/04 04:42:42;;;;;;;3.72;2.38;;;;;;;12.41;100.00;98547.97;5011200;28;20040;-65
2022/01/04 04:45:08;;;;;;;4.53;1.60;;;;;;;12.43;100.00;98548.75;5011993;28;20148;-65
2022/01/04 04:47:34;;;;;;;6.75;1.50;;;;;;;12.43;100.00;98535.41;5011753;28;20551;-64
2022/01/04 04:50:00;;;;;;;3.60;0.93;;;;;;;12.37;100.00;98525.97;5011950;28;20025;-64
2022/01/04 04:52:25;;;;;;;4.45;1.13;;;;;;;12.40;100.00;98528.47;5008583;28;20481;-65
2022/01/04 04:54:51;;;;;;;5.18;1.75;;;;;;;12.45;100.00;98520.16;5008842;28;20026;-65
2022/01/04 04:57:16;;;;;;;4.65;1.58;;;;;;;12.37;100.00;98501.97;5011391;28;20469;-64
2022/01/04 04:59:41;;;;;;;2.20;1.20;;;;;;;12.42;100.00;98505.22;5012116;28;20505;-64
2022/01/04 05:02:07;;;;;;;4.97;1.55;;;;;;;12.46;100.00;98495.22;5012001;28;20064;-64
2022/01/04 05:04:36;;;;;;;2.45;1.35;;;;;;;12.45;100.00;98496.16;5011638;28;20026;-64
2022/01/04 05:07:02;;;;;;;3.45;1.63;;;;;;;12.44;100.00;98494.44;5010861;28;20053;-64
2022/01/04 05:09:28;;;;;;;2.50;1.50;;;;;;;12.46;100.00;98492.53;5010011;28;20084;-64
2022/01/04 05:11:54;;;;;;;4.63;1.70;;;;;;;12.48;100.00;98490.63;5010789;28;20105;-64
2022/01/04 05:14:19;;;;;;;3.53;1.45;;;;;;;12.52;100.00;98473.50;5011597;28;20026;-63
2022/01/04 05:16:45;;;;;;;1.40;1.00;;;;;;;12.43;100.00;98469.59;5011599;28;20456;-63
2022/01/04 05:19:10;;;;;;;1.90;1.40;;;;;;;12.48;100.00;98482.63;4992685;28;20030;-63
2022/01/04 05:21:36;;;;;;;3.40;1.45;;;;;;;12.47;100.00;98468.44;4991163;28;20018;-63
2022/01/04 05:24:01;;;;;;;4.97;2.05;;;;;;;12.47;100.00;98471.09;4991633;28;20040;-63
2022/01/04 05:26:27;;;;;;;3.47;1.85;;;;;;;12.46;100.00;98464.06;4991218;28;20041;-63
2022/01/04 05:28:52;;;;;;;3.53;1.58;;;;;;;12.43;100.00;98458.06;4991290;28;20027;-63
2022/01/04 05:31:18;;;;;;;3.97;1.65;;;;;;;12.45;100.00;98446.38;4991555;28;20022;-62
2022/01/04 05:33:43;;;;;;;2.45;1.45;;;;;;;12.46;100.00;98441.88;5008425;28;20026;-62
2022/01/04 05:36:08;;;;;;;5.32;1.35;;;;;;;12.47;100.00;98436.44;5011117;28;20030;-62
2022/01/04 05:38:34;;;;;;;2.53;1.35;;;;;;;12.46;100.00;98432.06;5009977;28;20026;-62
2022/01/04 05:41:00;;;;;;;2.60;1.50;;;;;;;12.45;100.00;98430.38;5010617;28;20056;-62
2022/01/04 05:43:25;;;;;;;2.05;1.20;;;;;;;12.49;100.00;98426.53;5010311;28;20030;-62
2022/01/04 05:45:51;;;;;;;4.68;1.45;;;;;;;12.52;100.00;98409.50;5011423;28;20077;-62
2022/01/04 05:48:20;;;;;;;2.15;1.48;;;;;;;12.51;100.00;98408.63;5009980;28;20490;-62
2022/01/04 05:50:46;;;;;;;3.28;1.40;;;;;;;12.44;100.00;98401.97;5009654;28;20115;-62
2022/01/04 05:53:11;;;;;;;3.28;1.80;;;;;;;12.45;100.00;98381.50;5008240;28;20034;-62
2022/01/04 05:55:37;;;;;;;3.05;1.80;;;;;;;12.52;100.00;98388.97;5010974;28;20506;-62
2022/01/04 05:58:02;;;;;;;3.08;1.55;;;;;;;12.55;100.00;98393.28;5010280;28;20030;-62
2022/01/04 06:00:28;;;;;;;3.60;1.92;;;;;;;12.55;100.00;98377.28;5009916;28;20026;-61
2022/01/04 06:02:54;;;;;;;4.65;1.80;;;;;;;12.59;100.00;98382.28;5009991;28;20029;-61
2022/01/04 06:05:19;;;;;;;2.50;1.33;;;;;;;12.63;100.00;98381.16;5009834;28;20382;-61
2022/01/04 06:07:44;;;;;;;2.90;1.40;;;;;;;12.65;100.00;98373.03;5009817;28;20061;-61
2022/01/04 06:10:11;;;;;;;2.55;1.60;;;;;;;12.66;100.00;98375.59;5010647;28;20026;-61
2022/01/04 06:15:07;;;;;;;7.20;1.85;;;;;;;12.72;100.00;98376.97;5009888;28;20389;-61
2022/01/04 06:17:36;;;;;;;2.83;1.70;;;;;;;12.63;100.00;98350.94;5010128;28;20021;-62
2022/01/04 06:20:06;;;;;;;2.65;1.23;;;;;;;12.72;100.00;98367.19;5010340;28;20029;-62
2022/01/04 06:22:32;;;;;;;2.58;1.40;;;;;;;12.73;100.00;98360.91;5002823;28;20390;-62
2022/01/04 06:24:58;;;;;;;2.47;1.77;;;;;;;12.75;100.00;98363.47;4990017;28;20037;-62
2022/01/04 06:27:24;;;;;;;3.03;1.40;;;;;;;12.80;100.00;98351.50;4990185;28;20100;-62
2022/01/04 06:29:50;;;;;;;2.05;1.27;;;;;;;12.85;100.00;98349.38;4990527;28;20081;-62
2022/01/04 06:32:16;;;;;;;3.92;1.63;;;;;;;12.90;100.00;98347.25;4990339;28;20030;-62
2022/01/04 06:34:43;;;;;;;1.60;1.20;;;;;;;12.88;100.00;98345.66;4990529;28;20420;-62
2022/01/04 06:37:10;;;;;;;2.20;1.40;;;;;;;12.89;100.00;98345.56;4989933;28;20074;-61
2022/01/04 06:39:36;;;;;;;3.67;1.40;;;;;;;12.90;100.00;98341.91;4990256;28;20056;-61
2022/01/04 06:42:01;;;;;;;3.65;1.33;;;;;;;12.89;100.00;98332.22;4989876;28;20030;-62
2022/01/04 06:44:27;;;;;;;1.63;1.13;;;;;;;12.88;100.00;98338.50;4990360;28;20034;-62
2022/01/04 06:46:53;;;;;;;4.63;1.23;;;;;;;12.93;100.00;98325.69;4990851;28;20052;-62
2022/01/04 06:49:19;;;;;;;1.88;1.20;;;;;;;12.74;100.00;98311.03;4994878;28;20454;-62
2022/01/04 06:51:46;;;;;;;4.88;1.50;;;;;;;12.94;100.00;98322.06;5003351;28;20033;-62
2022/01/04 06:54:13;;;;;;;2.50;1.25;;;;;;;13.02;100.00;98322.44;5007757;28;20045;-62
2022/01/04 06:56:40;;;;;;;1.90;1.35;;;;;;;12.90;100.00;98299.22;5009247;28;20029;-62
2022/01/04 06:59:06;;;;;;;10.07;2.15;;;;;;;12.98;100.00;98307.53;5009489;28;20037;-62
2022/01/04 07:01:33;;;;;;;4.50;1.73;;;;;;;12.99;100.00;98303.94;5009583;28;20038;-62
2022/01/04 07:03:58;;;;;;;2.28;1.30;;;;;;;13.02;100.00;98302.88;5009931;28;20034;-62
2022/01/04 07:06:24;;;;;;;4.15;1.40;;;;;;;13.03;100.00;98297.44;5008707;28;20050;-62
2022/01/04 07:08:49;;;;;;;3.85;1.73;;;;;;;13.03;100.00;98293.94;5009077;28;20030;-62
2022/01/04 07:11:16;;;;;;;1.95;1.20;;;;;;;13.02;100.00;98290.41;5009574;28;20133;-62
2022/01/04 07:13:41;;;;;;;1.92;1.30;;;;;;;13.04;100.00;98295.63;5009206;28;20033;-62
2022/01/04 07:16:07;;;;;;;3.45;1.10;;;;;;;13.11;100.00;98295.09;5009698;28;20049;-62
2022/01/04 07:18:33;;;;;;;4.22;1.50;;;;;;;13.14;100.00;98291.34;4995880;28;20034;-62
2022/01/04 07:20:59;;;;;;;6.40;1.90;;;;;;;13.16;100.00;98287.59;4990220;28;20050;-62
2022/01/04 07:23:24;;;;;;;2.85;1.50;;;;;;;13.13;100.00;98287.81;4989645;28;20019;-62
2022/01/04 07:25:51;;;;;;;2.80;1.27;;;;;;;13.14;100.00;98280.69;4989688;28;20437;-62
2022/01/04 07:28:17;;;;;;;4.03;1.33;;;;;;;13.33;100.00;98274.91;4989257;28;20033;-62
2022/01/04 07:30:42;;;;;;;3.90;1.70;;;;;;;13.20;100.00;98273.09;4989372;28;20679;-62
2022/01/04 07:33:08;;;;;;;13.63;1.40;;;;;;;13.24;100.00;98279.91;5001251;28;20034;-62
2022/01/04 07:35:33;;;;;;;1.23;1.00;;;;;;;13.23;100.00;98289.88;5009447;28;20110;-62
2022/01/04 07:37:59;;;;;;;7.00;1.65;;;;;;;13.23;100.00;98286.22;5008506;28;20026;-62
2022/01/04 07:40:24;;;;;;;5.15;1.80;;;;;;;13.43;100.00;98279.47;5008899;28;20025;-63
2022/01/04 07:42:50;;;;;;;3.83;1.70;;;;;;;13.44;100.00;98273.16;5009216;28;20482;-63
2022/01/04 07:45:15;;;;;;;4.05;1.60;;;;;;;13.30;100.00;98275.09;5008745;28;20034;-63
2022/01/04 07:47:41;;;;;;;6.18;1.23;;;;;;;13.32;100.00;98278.50;5008698;28;20525;-62
2022/01/04 07:50:08;;;;;;;2.70;1.90;;;;;;;13.29;100.00;98274.25;5007457;28;20040;-62
2022/01/04 07:52:34;;;;;;;22.83;3.08;;;;;;;13.42;100.00;98279.56;5009059;28;20026;-62
2022/01/04 07:55:00;;;;;;;2.60;1.48;;;;;;;13.44;100.00;98274.97;5008460;28;20382;-63
2022/01/04 07:57:25;;;;;;;2.63;1.15;;;;;;;13.42;100.00;98275.09;5008756;28;20034;-63
2022/01/04 07:59:51;;;;;;;2.58;1.45;;;;;;;13.47;100.00;98277.44;5008614;28;20041;-63
2022/01/04 08:02:16;;;;;;;12.02;2.33;;;;;;;13.53;100.00;98282.31;5009030;28;20045;-63
2022/01/04 08:04:42;;;;;;;3.40;1.70;;;;;;;13.53;100.00;98280.50;5008735;28;20030;-63
2022/01/04 08:07:07;;;;;;;2.85;1.40;;;;;;;13.55;100.00;98280.41;5007172;28;20054;-63
2022/01/04 08:09:33;;;;;;;2.55;1.35;;;;;;;13.62;100.00;98281.66;5008793;28;20030;-63
2022/01/04 08:11:58;;;;;;;2.38;1.15;;;;;;;13.60;100.00;98278.25;5009149;28;20030;-63
2022/01/04 08:14:24;;;;;;;3.72;1.92;;;;;;;13.58;100.00;98258.78;5008392;28;20461;-63
2022/01/04 08:16:49;;;;;;;1.83;1.23;;;;;;;13.65;100.00;98252.06;5010978;28;20025;-63
2022/01/04 08:19:14;;;;;;;1.30;0.98;;;;;;;13.68;100.00;98259.84;5012296;28;20026;-63
2022/01/04 08:21:40;;;;;;;2.10;1.30;;;;;;;13.74;100.00;98244.22;4998647;28;20026;-63
2022/01/04 08:24:06;;;;;;;4.63;1.30;;;;;;;13.78;100.00;98231.47;4992972;28;20064;-63
2022/01/04 08:26:31;;;;;;;2.97;1.20;;;;;;;13.82;100.00;98235.66;4992752;28;20039;-63
2022/01/04 08:28:57;;;;;;;2.90;1.45;;;;;;;13.79;100.00;98238.56;4993135;28;20061;-63
2022/01/04 08:31:23;;;;;;;4.50;1.45;;;;;;;13.86;100.00;98237.09;4992411;28;20026;-63
2022/01/04 08:33:48;;;;;;;4.32;1.85;;;;;;;13.89;100.00;98232.41;4992526;28;20023;-63
2022/01/04 08:36:14;;;;;;;4.25;1.40;;;;;;;13.92;100.00;98234.84;4992673;28;20030;-63
2022/01/04 08:38:40;;;;;;;2.22;1.30;;;;;;;13.92;100.00;98234.00;4992328;28;20040;-63
2022/01/04 08:41:06;;;;;;;2.58;1.35;;;;;;;13.89;100.00;98231.53;4993295;28;20474;-63
2022/01/04 08:43:32;;;;;;;1.65;1.17;;;;;;;13.86;100.00;98215.72;4992418;28;20030;-63
2022/01/04 08:45:57;;;;;;;4.18;1.40;;;;;;;13.87;100.00;98230.81;4993595;28;20137;-63
2022/01/04 08:48:23;;;;;;;4.57;1.60;;;;;;;13.81;100.00;98223.22;4991478;28;20371;-63
2022/01/04 08:50:49;;;;;;;1.63;0.82;;;;;;;13.68;100.00;98219.75;4991615;28;20033;-63
2022/01/04 08:53:15;;;;;;;1.65;1.42;;;;;;;13.71;100.00;98214.19;4992693;28;20035;-63
2022/01/04 08:55:40;;;;;;;2.28;1.23;;;;;;;13.72;100.00;98207.91;4991684;28;20042;-63
2022/01/04 08:58:06;;;;;;;2.83;1.45;;;;;;;13.70;100.00;98194.66;4995046;28;20034;-63
2022/01/04 09:00:32;;;;;;;3.97;1.20;;;;;;;13.71;100.00;98206.16;4991884;28;20034;-63
2022/01/04 09:02:59;;;;;;;2.85;1.58;;;;;;;13.70;100.00;98199.13;4992373;28;20101;-63
2022/01/04 09:05:25;;;;;;;6.10;1.50;;;;;;;13.69;100.00;98202.78;4992064;28;20054;-62
2022/01/04 09:07:51;;;;;;;3.92;1.10;;;;;;;13.70;100.00;98199.13;4991216;28;20026;-62
2022/01/04 09:10:17;;;;;;;4.03;1.10;;;;;;;13.71;100.00;98206.16;4992278;28;20049;-62
2022/01/04 09:12:55;;;;;;;2.80;1.40;;;;;;;13.72;100.00;98206.06;4992014;28;20046;-62
2022/01/04 09:15:32;;;;;;;2.05;1.10;;;;;;;13.73;100.00;98204.25;4992454;28;20103;-62
2022/01/04 09:20:47;;;;;;;2.83;1.50;;;;;;;13.82;100.00;98192.88;5011891;28;20040;-62
2022/01/04 09:23:18;;;;;;;2.42;1.35;;;;;;;13.79;100.00;98198.47;5010997;28;20026;-62
2022/01/04 09:25:45;;;;;;;2.38;1.67;;;;;;;13.80;100.00;98201.03;5011341;28;20021;-62
2022/01/04 09:28:11;;;;;;;2.58;1.45;;;;;;;13.79;100.00;98214.50;5009414;28;20038;-62
2022/01/04 09:30:37;;;;;;;3.40;1.45;;;;;;;13.81;100.00;98217.88;5011704;28;20044;-62
2022/01/04 09:33:05;;;;;;;3.33;1.65;;;;;;;13.79;100.00;98209.97;4999539;28;20026;-62
2022/01/04 09:35:31;;;;;;;6.38;1.95;;;;;;;13.80;100.00;98221.53;4990122;28;20559;-62
2022/01/04 09:37:57;;;;;;;3.47;1.30;;;;;;;13.76;100.00;98206.69;4991355;28;20062;-62
2022/01/04 09:40:22;;;;;;;10.32;2.15;;;;;;;13.79;100.00;98214.50;4973865;28;20081;-62
2022/01/04 09:42:49;;;;;;;2.15;1.33;;;;;;;13.88;100.00;98209.31;4991664;28;20064;-62
2022/01/04 09:45:15;;;;;;;1.58;1.13;;;;;;;13.89;100.00;98199.47;4992019;28;20330;-62
2022/01/04 09:47:41;;;;;;;3.53;1.38;;;;;;;13.91;100.00;98190.38;4991029;28;20517;-62
2022/01/04 09:50:10;;;;;;;2.75;1.40;;;;;;;13.93;100.00;98190.25;5000287;28;20037;-62
2022/01/04 09:52:39;;;;;;;1.73;1.05;;;;;;;14.00;100.00;98186.16;5010856;28;20084;-62
2022/01/04 09:55:05;;;;;;;1.35;1.10;;;;;;;14.02;100.00;98186.91;5010118;28;20037;-62
2022/01/04 09:57:31;;;;;;;1.90;1.10;;;;;;;14.10;100.00;98188.00;5009300;28;20025;-62
2022/01/04 09:59:56;;;;;;;2.03;0.93;;;;;;;14.25;100.00;98186.00;5011130;28;20026;-62
2022/01/04 10:02:26;;;;;;;2.08;1.10;;;;;;;14.30;100.00;98176.69;5010339;28;20038;-62
2022/01/04 10:04:52;;;;;;;2.08;0.77;;;;;;;14.40;100.00;98163.44;5010159;28;20065;-62
2022/01/04 10:07:21;;;;;;;2.20;1.05;;;;;;;14.50;100.00;98169.78;5010222;28;20468;-62
2022/01/04 10:09:48;;;;;;;2.63;1.10;;;;;;;14.64;100.00;98177.63;5010595;28;20033;-62
2022/01/04 10:12:16;;;;;;;2.72;0.90;;;;;;;14.62;100.00;98174.19;5009510;28;20041;-62
2022/01/04 10:14:47;;;;;;;1.58;0.98;;;;;;;14.62;100.00;98168.84;5010488;28;20112;-62
2022/01/04 10:17:20;;;;;;;1.98;1.08;;;;;;;14.62;100.00;98160.81;5009388;28;20029;-62
2022/01/04 10:19:54;;;;;;;1.55;1.13;;;;;;;14.62;100.00;98176.88;5011156;28;20038;-63
2022/01/04 10:22:23;;;;;;;4.15;2.25;;;;;;;14.52;100.00;98158.03;5010717;28;20450;-63
2022/01/04 10:25:10;;;;;;;6.35;2.72;;;;;;;14.41;100.00;98162.50;5010841;28;20025;-63
2022/01/04 10:27:44;;;;;;;5.15;2.42;;;;;;;14.30;100.00;98167.78;4989001;28;20076;-63
2022/01/04 10:30:13;;;;;;;3.22;2.00;;;;;;;14.17;100.00;98170.53;4990570;28;20391;-63
2022/01/04 10:32:57;;;;;;;5.30;1.67;;;;;;;14.14;100.00;98169.91;4989839;28;20030;-63
2022/01/04 10:35:27;;;;;;;2.97;1.20;;;;;;;14.23;100.00;98163.88;4990456;28;20450;-63
2022/01/04 10:37:54;;;;;;;2.25;1.40;;;;;;;14.39;100.00;98153.72;4989948;28;20062;-63
2022/01/04 10:40:20;;;;;;;2.58;1.17;;;;;;;14.50;100.00;98153.75;4990348;28;20026;-63
2022/01/04 10:42:46;;;;;;;2.13;1.00;;;;;;;14.56;100.00;98150.59;4990763;28;20092;-63
2022/01/04 10:45:30;;;;;;;2.50;1.30;;;;;;;14.62;100.00;98147.44;4990157;28;20450;-63
2022/01/04 10:48:09;;;;;;;3.22;1.58;;;;;;;14.84;100.00;98152.81;4991617;28;20109;-63
2022/01/04 10:50:36;;;;;;;3.38;1.48;;;;;;;14.84;99.07;98146.59;4990629;28;20026;-63
2022/01/04 10:53:03;;;;;;;15.35;7.00;;;;;;;14.82;99.39;98141.38;4990011;28;20030;-63
2022/01/04 10:55:36;;;;;;;8.23;4.90;;;;;;;14.86;98.10;98148.16;4989628;28;20108;-63
2022/01/04 10:58:03;;;;;;;5.13;1.90;;;;;;;14.89;96.80;98128.34;4989941;28;20041;-63
2022/01/04 11:00:29;;;;;;;3.15;1.38;;;;;;;15.00;95.17;98145.25;4992413;28;20021;-63
2022/01/04 11:02:58;;;;;;;15.27;7.72;;;;;;;15.03;95.66;98146.81;4989705;28;20073;-63
2022/01/04 11:05:24;;;;;;;44.53;16.48;;;;;;;14.98;94.88;98138.31;4989126;28;20022;-63
2022/01/04 11:08:07;;;;;;;10.85;4.45;;;;;;;14.96;94.90;98133.06;4988959;28;20069;-63
2022/01/04 11:10:36;;;;;;;5.70;2.40;;;;;;;14.95;94.85;98134.06;4990085;28;20141;-63
2022/01/04 11:13:03;;;;;;;8.05;3.90;;;;;;;14.99;92.68;98140.03;4989790;28;20355;-63
2022/01/04 11:15:29;;;;;;;6.53;3.83;;;;;;;15.04;92.37;98127.94;4990134;28;20488;-63
2022/01/04 11:17:58;;;;;;;13.93;7.43;;;;;;;15.06;92.62;98136.72;4996440;28;20036;-63
2022/01/04 11:20:24;;;;;;;10.63;3.92;;;;;;;15.07;91.82;98117.03;5009780;28;20026;-63
2022/01/04 11:22:50;;;;;;;15.60;6.00;;;;;;;15.10;90.12;98124.81;5008242;28;20040;-63
2022/01/04 11:25:21;;;;;;;5.53;2.03;;;;;;;15.09;90.68;98120.41;5009464;28;20037;-63
2022/01/04 11:27:47;;;;;;;3.00;1.80;;;;;;;15.09;88.08;98115.06;5008144;28;20034;-63
2022/01/04 11:30:17;;;;;;;3.63;2.00;;;;;;;15.26;85.61;98133.28;5009461;28;20033;-63
2022/01/04 11:32:48;;;;;;;2.78;1.52;;;;;;;15.41;85.27;98126.72;4992244;28;20034;-63